Ana Sayfa
METAR-TAF:

METAR-TAF

Havaalanları :

Såtenäs, İsveç

Enlem: 58-26N, Boylam: 012-42E, yükseklik: 54 m

Güncel hava durumu gözlemi

Rapor saat 04:50 UTC de 18 dakika önce yapıldı.
Rüzgar güney/güneydoğudan 6 kt
Sıcaklık 1°C
Nem 100%
Basınç 998 hPa
Görüş mesafesi 10 km veya daha fazla

METAR: ESIB 290450Z AUTO 15006KT 9999 VV006 01/01 Q0998

Saat: 06:08 (05:08 UTC)

Tahmin

Rapor saat 11:00 UTC de 18 saat ve 8 dakika önce yapıldı.
Ayın 28'si saat 12 UTC'den ayın 28'si saat 16 UTC'ye kadar geçerli Tahmin
Rüzgar güney/güneybatıdan 6 kt
Görüş mesafesi 10 km veya daha fazla
3000 ft yükseklikte parçalı bulutlu
Geçici
ayın 28'si saat 13 UTC'den ayın 28'si saat 16 UTC'ye kadar
Görüş mesafesi: 3000 m
1500 ft yükseklikte parçalı çok bulutlu
hafif yağmur, kar

TAF: ESIB 281100Z 2812/2816 20006KT 9999 SCT030 TEMPO 2813/2816 3000 -RASN BKN015 RMK MIL

4.000'den fazla havaalanı için hava durumu gözlemleri ve tahminleri (METAR ve TAF raporları).

Kullanılabilir istasyonlar harita üzerinde sarı ve kırmızı noktalarla gösterilir.

İstasyonun adını görmek için fareyi noktanın üzerinde gezdirin.

Sonrasında hava gözlem ve tahminlerini görmek için tıklayın.

Haritayı değiştirmek için: yaklaştırmak için siyah artı işaretli yeşil düğmeye ve uzaklaştırmak için de eksi işaretli düğmeye hızla tıklayın; bitişik haritalar için yeşil okları kullanın.


METAR-TAF: